sensor_id;sensor_type;location;lat;lon;timestamp;temperature;humidity
53146;DHT22;39042;53.150;5.898;2023-09-30T00:00:01;11.40;99.90
53146;DHT22;39042;53.150;5.898;2023-09-30T00:02:36;11.40;99.90
53146;DHT22;39042;53.150;5.898;2023-09-30T00:05:02;11.40;99.90
53146;DHT22;39042;53.150;5.898;2023-09-30T00:07:29;11.40;99.90
53146;DHT22;39042;53.150;5.898;2023-09-30T00:09:55;11.40;99.90
53146;DHT22;39042;53.150;5.898;2023-09-30T00:12:21;11.40;99.90
53146;DHT22;39042;53.150;5.898;2023-09-30T00:14:47;11.40;99.90
53146;DHT22;39042;53.150;5.898;2023-09-30T00:17:14;11.40;99.90
53146;DHT22;39042;53.150;5.898;2023-09-30T00:19:40;11.40;99.90
53146;DHT22;39042;53.150;5.898;2023-09-30T00:22:06;11.30;99.90
53146;DHT22;39042;53.150;5.898;2023-09-30T00:24:32;11.30;99.90
53146;DHT22;39042;53.150;5.898;2023-09-30T00:26:59;11.40;99.90
53146;DHT22;39042;53.150;5.898;2023-09-30T00:29:25;11.40;99.90
53146;DHT22;39042;53.150;5.898;2023-09-30T00:31:52;11.40;99.90
53146;DHT22;39042;53.150;5.898;2023-09-30T00:34:18;11.50;99.90
53146;DHT22;39042;53.150;5.898;2023-09-30T00:36:43;11.50;99.90
53146;DHT22;39042;53.150;5.898;2023-09-30T00:39:12;11.50;99.90
53146;DHT22;39042;53.150;5.898;2023-09-30T00:41:41;11.60;99.90
53146;DHT22;39042;53.150;5.898;2023-09-30T00:44:07;11.60;99.90
53146;DHT22;39042;53.150;5.898;2023-09-30T00:46:37;11.60;99.90
53146;DHT22;39042;53.150;5.898;2023-09-30T00:49:05;11.70;99.90
53146;DHT22;39042;53.150;5.898;2023-09-30T00:51:32;11.70;99.90
53146;DHT22;39042;53.150;5.898;2023-09-30T00:53:59;11.80;99.90
53146;DHT22;39042;53.150;5.898;2023-09-30T00:56:28;11.90;99.90
53146;DHT22;39042;53.150;5.898;2023-09-30T00:58:55;12.00;99.90
53146;DHT22;39042;53.150;5.898;2023-09-30T01:01:21;12.00;99.90
53146;DHT22;39042;53.150;5.898;2023-09-30T01:03:48;12.10;99.90
53146;DHT22;39042;53.150;5.898;2023-09-30T01:06:14;12.10;99.90
53146;DHT22;39042;53.150;5.898;2023-09-30T01:08:40;12.20;99.90
53146;DHT22;39042;53.150;5.898;2023-09-30T01:11:07;12.20;99.90
53146;DHT22;39042;53.150;5.898;2023-09-30T01:13:35;12.20;99.90
53146;DHT22;39042;53.150;5.898;2023-09-30T01:16:08;12.30;99.90
53146;DHT22;39042;53.150;5.898;2023-09-30T01:18:38;12.40;99.90
53146;DHT22;39042;53.150;5.898;2023-09-30T01:21:05;12.40;99.90
53146;DHT22;39042;53.150;5.898;2023-09-30T01:23:32;12.40;99.90
53146;DHT22;39042;53.150;5.898;2023-09-30T01:26:12;12.40;99.90
53146;DHT22;39042;53.150;5.898;2023-09-30T01:28:38;12.40;99.90
53146;DHT22;39042;53.150;5.898;2023-09-30T01:31:05;12.50;99.90
53146;DHT22;39042;53.150;5.898;2023-09-30T01:33:32;12.50;99.90
53146;DHT22;39042;53.150;5.898;2023-09-30T01:35:59;12.50;99.90
53146;DHT22;39042;53.150;5.898;2023-09-30T01:38:26;12.60;99.90
53146;DHT22;39042;53.150;5.898;2023-09-30T01:40:52;12.60;99.90
53146;DHT22;39042;53.150;5.898;2023-09-30T01:43:19;12.60;99.90
53146;DHT22;39042;53.150;5.898;2023-09-30T01:45:44;12.60;99.90
53146;DHT22;39042;53.150;5.898;2023-09-30T01:48:11;12.60;99.90
53146;DHT22;39042;53.150;5.898;2023-09-30T01:50:38;12.60;99.90
53146;DHT22;39042;53.150;5.898;2023-09-30T01:53:04;12.60;99.90
53146;DHT22;39042;53.150;5.898;2023-09-30T01:55:32;12.60;99.90
53146;DHT22;39042;53.150;5.898;2023-09-30T01:57:59;12.70;99.90
53146;DHT22;39042;53.150;5.898;2023-09-30T02:00:25;12.70;99.90
53146;DHT22;39042;53.150;5.898;2023-09-30T02:02:54;12.70;99.90
53146;DHT22;39042;53.150;5.898;2023-09-30T02:05:22;12.70;99.90
53146;DHT22;39042;53.150;5.898;2023-09-30T02:07:49;12.70;99.90
53146;DHT22;39042;53.150;5.898;2023-09-30T02:10:16;12.80;99.90
53146;DHT22;39042;53.150;5.898;2023-09-30T02:12:45;12.80;99.90
53146;DHT22;39042;53.150;5.898;2023-09-30T02:15:12;12.80;99.90
53146;DHT22;39042;53.150;5.898;2023-09-30T02:17:38;12.90;99.90
53146;DHT22;39042;53.150;5.898;2023-09-30T02:20:05;12.90;99.90
53146;DHT22;39042;53.150;5.898;2023-09-30T02:22:33;13.00;99.90
53146;DHT22;39042;53.150;5.898;2023-09-30T02:24:59;13.00;99.90
53146;DHT22;39042;53.150;5.898;2023-09-30T02:27:26;13.00;99.90
53146;DHT22;39042;53.150;5.898;2023-09-30T02:29:52;13.10;99.90
53146;DHT22;39042;53.150;5.898;2023-09-30T02:32:18;13.00;99.90
53146;DHT22;39042;53.150;5.898;2023-09-30T02:34:43;13.10;99.90
53146;DHT22;39042;53.150;5.898;2023-09-30T02:37:10;13.10;99.90
53146;DHT22;39042;53.150;5.898;2023-09-30T02:39:36;13.10;99.90
53146;DHT22;39042;53.150;5.898;2023-09-30T02:42:03;13.10;99.90
53146;DHT22;39042;53.150;5.898;2023-09-30T02:44:29;13.10;99.90
53146;DHT22;39042;53.150;5.898;2023-09-30T02:46:55;13.10;99.90
53146;DHT22;39042;53.150;5.898;2023-09-30T02:49:21;13.10;99.90
53146;DHT22;39042;53.150;5.898;2023-09-30T02:51:47;13.10;99.90
53146;DHT22;39042;53.150;5.898;2023-09-30T02:54:15;13.10;99.90
53146;DHT22;39042;53.150;5.898;2023-09-30T02:56:42;13.10;99.90
53146;DHT22;39042;53.150;5.898;2023-09-30T02:59:08;13.00;99.90
53146;DHT22;39042;53.150;5.898;2023-09-30T03:01:34;13.00;99.90
53146;DHT22;39042;53.150;5.898;2023-09-30T03:04:00;12.90;99.90
53146;DHT22;39042;53.150;5.898;2023-09-30T03:06:26;12.90;99.90
53146;DHT22;39042;53.150;5.898;2023-09-30T03:08:51;12.80;99.90
53146;DHT22;39042;53.150;5.898;2023-09-30T03:11:18;12.70;99.90
53146;DHT22;39042;53.150;5.898;2023-09-30T03:13:45;12.60;99.90
53146;DHT22;39042;53.150;5.898;2023-09-30T03:16:11;12.60;99.90
53146;DHT22;39042;53.150;5.898;2023-09-30T03:18:37;12.60;99.90
53146;DHT22;39042;53.150;5.898;2023-09-30T03:21:13;12.50;99.90
53146;DHT22;39042;53.150;5.898;2023-09-30T03:23:39;12.50;99.90
53146;DHT22;39042;53.150;5.898;2023-09-30T03:26:05;12.40;99.90
53146;DHT22;39042;53.150;5.898;2023-09-30T03:28:36;12.50;99.90
53146;DHT22;39042;53.150;5.898;2023-09-30T03:31:03;12.40;99.90
53146;DHT22;39042;53.150;5.898;2023-09-30T03:33:34;12.30;99.90
53146;DHT22;39042;53.150;5.898;2023-09-30T03:36:00;12.30;99.90
53146;DHT22;39042;53.150;5.898;2023-09-30T03:38:26;12.20;99.90
53146;DHT22;39042;53.150;5.898;2023-09-30T03:40:52;12.20;99.90
53146;DHT22;39042;53.150;5.898;2023-09-30T03:43:21;12.20;99.90
53146;DHT22;39042;53.150;5.898;2023-09-30T03:45:46;12.10;99.90
53146;DHT22;39042;53.150;5.898;2023-09-30T03:48:12;12.00;99.90
53146;DHT22;39042;53.150;5.898;2023-09-30T03:50:38;12.00;99.90
53146;DHT22;39042;53.150;5.898;2023-09-30T03:53:05;12.00;99.90
53146;DHT22;39042;53.150;5.898;2023-09-30T03:55:33;12.00;99.90
53146;DHT22;39042;53.150;5.898;2023-09-30T03:57:59;11.90;99.90
53146;DHT22;39042;53.150;5.898;2023-09-30T04:00:25;11.90;99.90
53146;DHT22;39042;53.150;5.898;2023-09-30T04:02:52;11.90;99.90
53146;DHT22;39042;53.150;5.898;2023-09-30T04:05:27;11.90;99.90
53146;DHT22;39042;53.150;5.898;2023-09-30T04:07:56;12.00;99.90
53146;DHT22;39042;53.150;5.898;2023-09-30T04:10:22;11.90;99.90
53146;DHT22;39042;53.150;5.898;2023-09-30T04:12:51;12.00;99.90
53146;DHT22;39042;53.150;5.898;2023-09-30T04:15:18;12.00;99.90
53146;DHT22;39042;53.150;5.898;2023-09-30T04:17:44;12.00;99.90
53146;DHT22;39042;53.150;5.898;2023-09-30T04:20:10;12.00;99.90
53146;DHT22;39042;53.150;5.898;2023-09-30T04:22:44;12.00;99.90
53146;DHT22;39042;53.150;5.898;2023-09-30T04:25:15;12.00;99.90
53146;DHT22;39042;53.150;5.898;2023-09-30T04:27:46;12.00;99.90
53146;DHT22;39042;53.150;5.898;2023-09-30T04:30:13;11.90;99.90
53146;DHT22;39042;53.150;5.898;2023-09-30T04:32:40;11.90;99.90
53146;DHT22;39042;53.150;5.898;2023-09-30T04:35:07;11.90;99.90
53146;DHT22;39042;53.150;5.898;2023-09-30T04:37:36;11.90;99.90
53146;DHT22;39042;53.150;5.898;2023-09-30T04:40:07;11.80;99.90
53146;DHT22;39042;53.150;5.898;2023-09-30T04:42:46;11.80;99.90
53146;DHT22;39042;53.150;5.898;2023-09-30T04:45:15;11.80;99.90
53146;DHT22;39042;53.150;5.898;2023-09-30T04:47:49;11.70;99.90
53146;DHT22;39042;53.150;5.898;2023-09-30T04:50:16;11.70;99.90
53146;DHT22;39042;53.150;5.898;2023-09-30T04:52:42;11.60;99.90
53146;DHT22;39042;53.150;5.898;2023-09-30T04:55:08;11.60;99.90
53146;DHT22;39042;53.150;5.898;2023-09-30T04:57:34;11.50;99.90
53146;DHT22;39042;53.150;5.898;2023-09-30T05:00:00;11.50;99.90
53146;DHT22;39042;53.150;5.898;2023-09-30T05:02:27;11.50;99.90
53146;DHT22;39042;53.150;5.898;2023-09-30T05:04:53;11.50;99.90
53146;DHT22;39042;53.150;5.898;2023-09-30T05:07:20;11.40;99.90
53146;DHT22;39042;53.150;5.898;2023-09-30T05:09:48;11.40;99.90
53146;DHT22;39042;53.150;5.898;2023-09-30T05:12:13;11.40;99.90
53146;DHT22;39042;53.150;5.898;2023-09-30T05:14:40;11.30;99.90
53146;DHT22;39042;53.150;5.898;2023-09-30T05:17:06;11.30;99.90
53146;DHT22;39042;53.150;5.898;2023-09-30T05:19:33;11.30;99.90
53146;DHT22;39042;53.150;5.898;2023-09-30T05:21:59;11.30;99.90
53146;DHT22;39042;53.150;5.898;2023-09-30T05:24:28;11.20;99.90
53146;DHT22;39042;53.150;5.898;2023-09-30T05:26:54;11.30;99.90
53146;DHT22;39042;53.150;5.898;2023-09-30T05:29:20;11.30;99.90
53146;DHT22;39042;53.150;5.898;2023-09-30T05:31:46;11.30;99.90
53146;DHT22;39042;53.150;5.898;2023-09-30T05:34:12;11.30;99.90
53146;DHT22;39042;53.150;5.898;2023-09-30T05:36:38;11.30;99.90
53146;DHT22;39042;53.150;5.898;2023-09-30T05:39:05;11.20;99.90
53146;DHT22;39042;53.150;5.898;2023-09-30T05:41:31;11.20;99.90
53146;DHT22;39042;53.150;5.898;2023-09-30T05:43:57;11.20;99.90
53146;DHT22;39042;53.150;5.898;2023-09-30T05:46:24;11.20;99.90
53146;DHT22;39042;53.150;5.898;2023-09-30T05:48:50;11.20;99.90
53146;DHT22;39042;53.150;5.898;2023-09-30T05:51:16;11.20;99.90
53146;DHT22;39042;53.150;5.898;2023-09-30T05:53:44;11.20;99.90
53146;DHT22;39042;53.150;5.898;2023-09-30T05:56:12;11.20;99.90
53146;DHT22;39042;53.150;5.898;2023-09-30T05:58:43;11.20;99.90
53146;DHT22;39042;53.150;5.898;2023-09-30T06:01:09;11.20;99.90
53146;DHT22;39042;53.150;5.898;2023-09-30T06:03:38;11.20;99.90
53146;DHT22;39042;53.150;5.898;2023-09-30T06:06:14;11.20;99.90
53146;DHT22;39042;53.150;5.898;2023-09-30T06:08:42;11.20;99.90
53146;DHT22;39042;53.150;5.898;2023-09-30T06:11:21;11.20;99.90
53146;DHT22;39042;53.150;5.898;2023-09-30T06:13:51;11.30;99.90
53146;DHT22;39042;53.150;5.898;2023-09-30T06:16:19;11.30;99.90
53146;DHT22;39042;53.150;5.898;2023-09-30T06:18:45;11.30;99.90
53146;DHT22;39042;53.150;5.898;2023-09-30T06:21:15;11.40;99.90
53146;DHT22;39042;53.150;5.898;2023-09-30T06:23:43;11.50;99.90
53146;DHT22;39042;53.150;5.898;2023-09-30T06:26:09;11.50;99.90
53146;DHT22;39042;53.150;5.898;2023-09-30T06:28:35;11.50;99.90
53146;DHT22;39042;53.150;5.898;2023-09-30T06:31:09;11.60;99.90
53146;DHT22;39042;53.150;5.898;2023-09-30T06:33:39;11.60;99.90
53146;DHT22;39042;53.150;5.898;2023-09-30T06:36:23;11.60;99.90
53146;DHT22;39042;53.150;5.898;2023-09-30T06:38:49;11.70;99.90
53146;DHT22;39042;53.150;5.898;2023-09-30T06:41:16;11.70;99.90
53146;DHT22;39042;53.150;5.898;2023-09-30T06:43:42;11.70;99.90
53146;DHT22;39042;53.150;5.898;2023-09-30T06:46:09;11.80;99.90
53146;DHT22;39042;53.150;5.898;2023-09-30T06:48:41;11.80;99.90
53146;DHT22;39042;53.150;5.898;2023-09-30T06:51:12;11.90;99.90
53146;DHT22;39042;53.150;5.898;2023-09-30T06:53:38;12.00;99.90
53146;DHT22;39042;53.150;5.898;2023-09-30T06:56:05;12.00;99.90
53146;DHT22;39042;53.150;5.898;2023-09-30T06:58:31;12.10;99.90
53146;DHT22;39042;53.150;5.898;2023-09-30T07:00:57;12.20;99.90
53146;DHT22;39042;53.150;5.898;2023-09-30T07:03:23;12.20;99.90
53146;DHT22;39042;53.150;5.898;2023-09-30T07:05:50;12.30;99.90
53146;DHT22;39042;53.150;5.898;2023-09-30T07:08:19;12.40;99.90
53146;DHT22;39042;53.150;5.898;2023-09-30T07:10:47;12.50;99.90
53146;DHT22;39042;53.150;5.898;2023-09-30T07:13:16;12.50;99.90
53146;DHT22;39042;53.150;5.898;2023-09-30T07:15:42;12.60;99.90
53146;DHT22;39042;53.150;5.898;2023-09-30T07:18:08;12.70;99.90
53146;DHT22;39042;53.150;5.898;2023-09-30T07:20:34;12.80;99.90
53146;DHT22;39042;53.150;5.898;2023-09-30T07:23:00;12.90;99.90
53146;DHT22;39042;53.150;5.898;2023-09-30T07:25:27;13.00;99.90
53146;DHT22;39042;53.150;5.898;2023-09-30T07:27:53;13.10;99.90
53146;DHT22;39042;53.150;5.898;2023-09-30T07:30:18;13.10;99.90
53146;DHT22;39042;53.150;5.898;2023-09-30T07:32:45;13.20;99.90
53146;DHT22;39042;53.150;5.898;2023-09-30T07:35:14;13.40;99.90
53146;DHT22;39042;53.150;5.898;2023-09-30T07:37:41;13.50;99.90
53146;DHT22;39042;53.150;5.898;2023-09-30T07:40:07;13.60;99.90
53146;DHT22;39042;53.150;5.898;2023-09-30T07:42:33;13.70;99.90
53146;DHT22;39042;53.150;5.898;2023-09-30T07:45:02;13.80;99.90
53146;DHT22;39042;53.150;5.898;2023-09-30T07:47:29;13.90;99.90
53146;DHT22;39042;53.150;5.898;2023-09-30T07:49:56;14.00;99.90
53146;DHT22;39042;53.150;5.898;2023-09-30T07:52:22;14.10;99.90
53146;DHT22;39042;53.150;5.898;2023-09-30T07:54:48;14.20;99.90
53146;DHT22;39042;53.150;5.898;2023-09-30T07:57:14;14.20;99.90
53146;DHT22;39042;53.150;5.898;2023-09-30T07:59:40;14.30;99.90
53146;DHT22;39042;53.150;5.898;2023-09-30T08:02:06;14.40;99.90
53146;DHT22;39042;53.150;5.898;2023-09-30T08:04:32;14.50;99.90
53146;DHT22;39042;53.150;5.898;2023-09-30T08:06:58;14.50;99.90
53146;DHT22;39042;53.150;5.898;2023-09-30T08:09:24;14.60;99.90
53146;DHT22;39042;53.150;5.898;2023-09-30T08:11:54;14.70;99.90
53146;DHT22;39042;53.150;5.898;2023-09-30T08:14:20;14.80;99.90
53146;DHT22;39042;53.150;5.898;2023-09-30T08:16:45;14.80;99.90
53146;DHT22;39042;53.150;5.898;2023-09-30T08:19:11;15.00;99.90
53146;DHT22;39042;53.150;5.898;2023-09-30T08:21:37;15.10;99.90
53146;DHT22;39042;53.150;5.898;2023-09-30T08:24:03;15.10;99.90
53146;DHT22;39042;53.150;5.898;2023-09-30T08:26:29;15.20;99.90
53146;DHT22;39042;53.150;5.898;2023-09-30T08:28:56;15.30;99.90
53146;DHT22;39042;53.150;5.898;2023-09-30T08:31:25;15.40;99.90
53146;DHT22;39042;53.150;5.898;2023-09-30T08:34:03;15.50;99.90
53146;DHT22;39042;53.150;5.898;2023-09-30T08:36:37;15.60;99.90
53146;DHT22;39042;53.150;5.898;2023-09-30T08:39:03;15.60;99.90
53146;DHT22;39042;53.150;5.898;2023-09-30T08:41:33;15.70;99.90
53146;DHT22;39042;53.150;5.898;2023-09-30T08:44:00;15.80;99.90
53146;DHT22;39042;53.150;5.898;2023-09-30T08:46:30;15.80;99.90
53146;DHT22;39042;53.150;5.898;2023-09-30T08:48:58;15.90;99.90
53146;DHT22;39042;53.150;5.898;2023-09-30T08:51:25;16.00;99.90
53146;DHT22;39042;53.150;5.898;2023-09-30T08:53:52;16.10;99.90
53146;DHT22;39042;53.150;5.898;2023-09-30T08:56:21;16.20;99.90
53146;DHT22;39042;53.150;5.898;2023-09-30T08:58:50;16.20;99.90
53146;DHT22;39042;53.150;5.898;2023-09-30T09:01:16;16.30;99.90
53146;DHT22;39042;53.150;5.898;2023-09-30T09:03:42;16.30;99.90
53146;DHT22;39042;53.150;5.898;2023-09-30T09:06:07;16.40;99.90
53146;DHT22;39042;53.150;5.898;2023-09-30T09:08:33;16.50;99.90
53146;DHT22;39042;53.150;5.898;2023-09-30T09:11:00;16.60;99.90
53146;DHT22;39042;53.150;5.898;2023-09-30T09:13:28;16.60;99.90
53146;DHT22;39042;53.150;5.898;2023-09-30T09:16:09;16.70;99.90
53146;DHT22;39042;53.150;5.898;2023-09-30T09:18:35;16.80;99.90
53146;DHT22;39042;53.150;5.898;2023-09-30T09:21:10;16.80;99.90
53146;DHT22;39042;53.150;5.898;2023-09-30T09:23:55;16.90;99.90
53146;DHT22;39042;53.150;5.898;2023-09-30T09:26:31;17.00;99.90
53146;DHT22;39042;53.150;5.898;2023-09-30T09:28:59;17.10;99.90
53146;DHT22;39042;53.150;5.898;2023-09-30T09:31:27;17.30;99.90
53146;DHT22;39042;53.150;5.898;2023-09-30T09:33:53;17.40;99.90
53146;DHT22;39042;53.150;5.898;2023-09-30T09:36:19;17.60;99.90
53146;DHT22;39042;53.150;5.898;2023-09-30T09:38:50;17.80;99.90
53146;DHT22;39042;53.150;5.898;2023-09-30T09:41:20;18.00;99.90
53146;DHT22;39042;53.150;5.898;2023-09-30T09:43:48;18.10;99.90
53146;DHT22;39042;53.150;5.898;2023-09-30T09:46:16;18.20;99.90
53146;DHT22;39042;53.150;5.898;2023-09-30T09:48:45;18.20;99.90
53146;DHT22;39042;53.150;5.898;2023-09-30T09:51:13;18.20;99.90
53146;DHT22;39042;53.150;5.898;2023-09-30T09:53:41;18.10;99.90
53146;DHT22;39042;53.150;5.898;2023-09-30T09:56:11;18.00;99.90
53146;DHT22;39042;53.150;5.898;2023-09-30T09:58:39;17.90;99.90
53146;DHT22;39042;53.150;5.898;2023-09-30T10:01:12;17.90;99.90
53146;DHT22;39042;53.150;5.898;2023-09-30T10:03:38;17.80;99.90
53146;DHT22;39042;53.150;5.898;2023-09-30T10:06:05;17.80;99.90
53146;DHT22;39042;53.150;5.898;2023-09-30T10:08:43;17.80;99.90
53146;DHT22;39042;53.150;5.898;2023-09-30T10:11:17;17.80;99.90
53146;DHT22;39042;53.150;5.898;2023-09-30T10:19:22;18.00;99.90
53146;DHT22;39042;53.150;5.898;2023-09-30T10:24:46;18.00;99.90
53146;DHT22;39042;53.150;5.898;2023-09-30T10:29:48;17.90;99.90
53146;DHT22;39042;53.150;5.898;2023-09-30T10:32:15;17.80;99.90
53146;DHT22;39042;53.150;5.898;2023-09-30T10:34:50;17.80;99.90
53146;DHT22;39042;53.150;5.898;2023-09-30T10:37:21;17.80;99.90
53146;DHT22;39042;53.150;5.898;2023-09-30T10:39:56;17.70;99.90
53146;DHT22;39042;53.150;5.898;2023-09-30T10:42:49;17.70;99.90
53146;DHT22;39042;53.150;5.898;2023-09-30T10:50:59;17.80;99.90
53146;DHT22;39042;53.150;5.898;2023-09-30T10:53:27;17.80;99.90
53146;DHT22;39042;53.150;5.898;2023-09-30T10:55:57;17.80;99.90
53146;DHT22;39042;53.150;5.898;2023-09-30T10:58:44;17.90;99.90
53146;DHT22;39042;53.150;5.898;2023-09-30T11:01:11;18.10;99.90
53146;DHT22;39042;53.150;5.898;2023-09-30T11:03:37;18.10;99.90
53146;DHT22;39042;53.150;5.898;2023-09-30T11:06:03;18.20;99.90
53146;DHT22;39042;53.150;5.898;2023-09-30T11:08:29;18.30;99.90
53146;DHT22;39042;53.150;5.898;2023-09-30T11:10:55;18.30;99.90
53146;DHT22;39042;53.150;5.898;2023-09-30T11:13:22;18.40;99.90
53146;DHT22;39042;53.150;5.898;2023-09-30T11:15:48;18.50;99.90
53146;DHT22;39042;53.150;5.898;2023-09-30T11:18:25;18.50;99.90
53146;DHT22;39042;53.150;5.898;2023-09-30T11:21:10;18.50;99.90
53146;DHT22;39042;53.150;5.898;2023-09-30T11:23:37;18.50;99.90
53146;DHT22;39042;53.150;5.898;2023-09-30T11:26:04;18.50;99.90
53146;DHT22;39042;53.150;5.898;2023-09-30T11:28:41;18.60;99.90
53146;DHT22;39042;53.150;5.898;2023-09-30T11:31:11;18.60;99.90
53146;DHT22;39042;53.150;5.898;2023-09-30T11:33:53;18.60;99.90
53146;DHT22;39042;53.150;5.898;2023-09-30T11:36:22;18.60;99.90
53146;DHT22;39042;53.150;5.898;2023-09-30T11:38:50;18.60;99.90
53146;DHT22;39042;53.150;5.898;2023-09-30T11:41:17;18.70;99.90
53146;DHT22;39042;53.150;5.898;2023-09-30T11:44:02;18.70;99.90
53146;DHT22;39042;53.150;5.898;2023-09-30T11:46:31;18.70;99.90
53146;DHT22;39042;53.150;5.898;2023-09-30T11:49:00;18.70;99.90
53146;DHT22;39042;53.150;5.898;2023-09-30T11:51:28;18.70;99.90
53146;DHT22;39042;53.150;5.898;2023-09-30T11:53:55;18.80;99.90
53146;DHT22;39042;53.150;5.898;2023-09-30T11:56:23;18.90;99.90
53146;DHT22;39042;53.150;5.898;2023-09-30T11:58:55;19.00;99.90
53146;DHT22;39042;53.150;5.898;2023-09-30T12:01:21;19.00;99.90
53146;DHT22;39042;53.150;5.898;2023-09-30T12:03:48;19.10;99.90
53146;DHT22;39042;53.150;5.898;2023-09-30T12:06:14;19.20;99.90
53146;DHT22;39042;53.150;5.898;2023-09-30T12:08:42;19.30;99.90
53146;DHT22;39042;53.150;5.898;2023-09-30T12:11:08;19.30;99.90
53146;DHT22;39042;53.150;5.898;2023-09-30T12:13:34;19.30;99.90
53146;DHT22;39042;53.150;5.898;2023-09-30T12:16:00;19.40;99.90
53146;DHT22;39042;53.150;5.898;2023-09-30T12:18:27;19.30;99.90
53146;DHT22;39042;53.150;5.898;2023-09-30T12:20:53;19.40;99.90
53146;DHT22;39042;53.150;5.898;2023-09-30T12:23:19;19.40;99.90
53146;DHT22;39042;53.150;5.898;2023-09-30T12:25:46;19.50;99.90
53146;DHT22;39042;53.150;5.898;2023-09-30T12:28:13;19.60;99.90
53146;DHT22;39042;53.150;5.898;2023-09-30T12:30:43;19.60;99.90
53146;DHT22;39042;53.150;5.898;2023-09-30T12:33:09;19.70;99.90
53146;DHT22;39042;53.150;5.898;2023-09-30T12:35:36;19.70;99.90
53146;DHT22;39042;53.150;5.898;2023-09-30T12:38:02;19.80;99.90
53146;DHT22;39042;53.150;5.898;2023-09-30T12:40:28;19.90;99.90
53146;DHT22;39042;53.150;5.898;2023-09-30T12:42:55;20.00;99.90
53146;DHT22;39042;53.150;5.898;2023-09-30T12:45:21;20.00;99.90
53146;DHT22;39042;53.150;5.898;2023-09-30T12:47:47;20.10;99.90
53146;DHT22;39042;53.150;5.898;2023-09-30T12:50:13;20.10;99.90
53146;DHT22;39042;53.150;5.898;2023-09-30T12:52:39;20.20;99.90
53146;DHT22;39042;53.150;5.898;2023-09-30T12:55:05;20.10;99.90
53146;DHT22;39042;53.150;5.898;2023-09-30T12:57:31;20.10;99.90
53146;DHT22;39042;53.150;5.898;2023-09-30T12:59:57;20.10;99.90
53146;DHT22;39042;53.150;5.898;2023-09-30T13:02:23;20.10;99.90
53146;DHT22;39042;53.150;5.898;2023-09-30T13:04:49;20.10;99.90
53146;DHT22;39042;53.150;5.898;2023-09-30T13:07:15;20.10;99.90
53146;DHT22;39042;53.150;5.898;2023-09-30T13:09:42;20.10;99.90
53146;DHT22;39042;53.150;5.898;2023-09-30T13:12:08;20.20;99.90
53146;DHT22;39042;53.150;5.898;2023-09-30T13:14:34;20.20;99.90
53146;DHT22;39042;53.150;5.898;2023-09-30T13:17:00;20.20;99.90
53146;DHT22;39042;53.150;5.898;2023-09-30T13:19:26;20.30;99.90
53146;DHT22;39042;53.150;5.898;2023-09-30T13:21:52;20.30;99.90
53146;DHT22;39042;53.150;5.898;2023-09-30T13:24:19;20.30;99.90
53146;DHT22;39042;53.150;5.898;2023-09-30T13:26:45;20.30;99.90
53146;DHT22;39042;53.150;5.898;2023-09-30T13:29:11;20.20;99.90
53146;DHT22;39042;53.150;5.898;2023-09-30T13:31:39;20.20;99.90
53146;DHT22;39042;53.150;5.898;2023-09-30T13:34:05;20.20;99.90
53146;DHT22;39042;53.150;5.898;2023-09-30T13:36:31;20.30;99.90
53146;DHT22;39042;53.150;5.898;2023-09-30T13:38:57;20.30;99.90
53146;DHT22;39042;53.150;5.898;2023-09-30T13:41:23;20.20;99.90
53146;DHT22;39042;53.150;5.898;2023-09-30T13:43:49;20.30;99.90
53146;DHT22;39042;53.150;5.898;2023-09-30T13:46:15;20.40;99.90
53146;DHT22;39042;53.150;5.898;2023-09-30T13:48:42;20.50;99.90
53146;DHT22;39042;53.150;5.898;2023-09-30T13:51:08;20.40;99.90
53146;DHT22;39042;53.150;5.898;2023-09-30T13:53:35;20.30;99.90
53146;DHT22;39042;53.150;5.898;2023-09-30T13:56:01;20.30;99.90
53146;DHT22;39042;53.150;5.898;2023-09-30T13:58:29;20.10;99.90
53146;DHT22;39042;53.150;5.898;2023-09-30T14:00:55;20.00;99.90
53146;DHT22;39042;53.150;5.898;2023-09-30T14:03:23;19.90;99.90
53146;DHT22;39042;53.150;5.898;2023-09-30T14:05:51;19.90;99.90
53146;DHT22;39042;53.150;5.898;2023-09-30T14:08:18;19.90;99.90
53146;DHT22;39042;53.150;5.898;2023-09-30T14:10:44;19.90;99.90
53146;DHT22;39042;53.150;5.898;2023-09-30T14:13:10;19.80;99.90
53146;DHT22;39042;53.150;5.898;2023-09-30T14:15:37;19.90;99.90
53146;DHT22;39042;53.150;5.898;2023-09-30T14:18:03;19.90;99.90
53146;DHT22;39042;53.150;5.898;2023-09-30T14:20:29;19.90;99.90
53146;DHT22;39042;53.150;5.898;2023-09-30T14:22:55;19.90;99.90
53146;DHT22;39042;53.150;5.898;2023-09-30T14:25:22;20.00;99.90
53146;DHT22;39042;53.150;5.898;2023-09-30T14:27:48;20.10;99.90
53146;DHT22;39042;53.150;5.898;2023-09-30T14:30:15;20.10;99.90
53146;DHT22;39042;53.150;5.898;2023-09-30T14:32:41;20.20;99.90
53146;DHT22;39042;53.150;5.898;2023-09-30T14:35:08;20.30;99.90
53146;DHT22;39042;53.150;5.898;2023-09-30T14:37:35;20.30;99.90
53146;DHT22;39042;53.150;5.898;2023-09-30T14:40:01;20.30;99.90
53146;DHT22;39042;53.150;5.898;2023-09-30T14:42:31;20.30;99.90
53146;DHT22;39042;53.150;5.898;2023-09-30T14:44:57;20.30;99.90
53146;DHT22;39042;53.150;5.898;2023-09-30T14:47:23;20.40;99.90
53146;DHT22;39042;53.150;5.898;2023-09-30T14:49:49;20.50;99.90
53146;DHT22;39042;53.150;5.898;2023-09-30T14:52:15;20.40;99.90
53146;DHT22;39042;53.150;5.898;2023-09-30T14:54:41;20.40;99.90
53146;DHT22;39042;53.150;5.898;2023-09-30T14:57:07;20.30;99.90
53146;DHT22;39042;53.150;5.898;2023-09-30T14:59:35;20.30;99.90
53146;DHT22;39042;53.150;5.898;2023-09-30T15:02:01;20.30;99.90
53146;DHT22;39042;53.150;5.898;2023-09-30T15:04:27;20.20;99.90
53146;DHT22;39042;53.150;5.898;2023-09-30T15:06:53;20.10;99.90
53146;DHT22;39042;53.150;5.898;2023-09-30T15:09:19;20.10;99.90
53146;DHT22;39042;53.150;5.898;2023-09-30T15:11:45;20.00;99.90
53146;DHT22;39042;53.150;5.898;2023-09-30T15:14:11;19.90;99.90
53146;DHT22;39042;53.150;5.898;2023-09-30T15:16:37;19.80;99.90
53146;DHT22;39042;53.150;5.898;2023-09-30T15:19:03;19.80;99.90
53146;DHT22;39042;53.150;5.898;2023-09-30T15:21:30;19.60;99.90
53146;DHT22;39042;53.150;5.898;2023-09-30T15:23:56;19.50;99.90
53146;DHT22;39042;53.150;5.898;2023-09-30T15:26:22;19.50;99.90
53146;DHT22;39042;53.150;5.898;2023-09-30T15:28:47;19.40;99.90
53146;DHT22;39042;53.150;5.898;2023-09-30T15:31:13;19.30;99.90
53146;DHT22;39042;53.150;5.898;2023-09-30T15:33:40;19.20;99.90
53146;DHT22;39042;53.150;5.898;2023-09-30T15:36:13;19.20;99.90
53146;DHT22;39042;53.150;5.898;2023-09-30T15:38:40;19.10;99.90
53146;DHT22;39042;53.150;5.898;2023-09-30T15:41:06;19.00;99.90
53146;DHT22;39042;53.150;5.898;2023-09-30T15:43:32;19.00;99.90
53146;DHT22;39042;53.150;5.898;2023-09-30T15:45:58;19.00;99.90
53146;DHT22;39042;53.150;5.898;2023-09-30T15:48:25;18.90;99.90